CheckWX is a tool to help pilots better visualize weather data.  It is not intended as a substitute for an official pre-flight weather briefing.

22:40:17 UTC

33V METAR
Walden-Jackson County Airport
Walden, Colorado, USA
Current

5 mins ago

K33V 262235Z AUTO 00000KT 10SM CLR 02/M07 A3017 RMK AO1
Observed
Mar-26 @ 22:35 UTC
Visibility
10 SM
Flight Rules
VFR
Cloud Levels
  • Clear skies
Temperature
C / 36°F
Dewpoint
-7°C / 19°F
Humidity
52%
Altimeter
30.17" Hg
Pressure
1021.72 hPa
Previous

25 mins ago

K33V 262215Z AUTO 00000KT 10SM CLR 01/M07 A3017 RMK AO1
Observed
Mar-26 @ 22:15 UTC
Visibility
10 SM
Flight Rules
VFR
Cloud Levels
  • Clear skies
Temperature
C / 34°F
Dewpoint
-7°C / 19°F
Humidity
56%
Altimeter
30.17" Hg
Pressure
1021.72 hPa
Previous

45 mins ago

K33V 262155Z AUTO 30006KT 10SM CLR 02/M06 A3018 RMK AO1
Observed
Mar-26 @ 21:55 UTC
Wind
  • 300° at 6 KTS
Visibility
10 SM
Flight Rules
VFR
Cloud Levels
  • Clear skies
Temperature
C / 36°F
Dewpoint
-6°C / 21°F
Humidity
56%
Altimeter
30.18" Hg
Pressure
1022.02 hPa